sensor_id;sensor_type;location;lat;lon;timestamp;P1;durP1;ratioP1;P2;durP2;ratioP2
32788;SDS011;19141;48.980;8.410;2022-11-20T05:22:32;6.88;;;3.03;;
32788;SDS011;19141;48.980;8.410;2022-11-20T05:24:57;2.72;;;2.13;;
32788;SDS011;19141;48.980;8.410;2022-11-20T05:27:23;2.28;;;2.05;;
32788;SDS011;19141;48.980;8.410;2022-11-20T05:29:48;3.95;;;2.42;;
32788;SDS011;19141;48.980;8.410;2022-11-20T05:32:13;3.63;;;2.13;;
32788;SDS011;19141;48.980;8.410;2022-11-20T05:34:39;3.78;;;2.45;;
32788;SDS011;19141;48.980;8.410;2022-11-20T05:37:04;5.03;;;2.42;;
32788;SDS011;19141;48.980;8.410;2022-11-20T05:39:29;5.13;;;2.17;;
32788;SDS011;19141;48.980;8.410;2022-11-20T05:41:55;8.90;;;3.38;;
32788;SDS011;19141;48.980;8.410;2022-11-20T05:44:39;3.35;;;1.92;;
32788;SDS011;19141;48.980;8.410;2022-11-20T05:47:04;6.93;;;2.20;;
32788;SDS011;19141;48.980;8.410;2022-11-20T05:49:30;3.65;;;2.30;;
32788;SDS011;19141;48.980;8.410;2022-11-20T05:51:56;3.47;;;2.05;;
32788;SDS011;19141;48.980;8.410;2022-11-20T05:54:21;4.47;;;2.10;;
32788;SDS011;19141;48.980;8.410;2022-11-20T05:56:46;3.70;;;1.90;;
32788;SDS011;19141;48.980;8.410;2022-11-20T05:59:12;2.65;;;1.92;;
32788;SDS011;19141;48.980;8.410;2022-11-20T06:01:37;3.03;;;1.52;;
32788;SDS011;19141;48.980;8.410;2022-11-20T06:04:03;5.25;;;2.08;;
32788;SDS011;19141;48.980;8.410;2022-11-20T06:06:28;2.65;;;1.67;;
32788;SDS011;19141;48.980;8.410;2022-11-20T06:08:54;2.90;;;1.90;;
32788;SDS011;19141;48.980;8.410;2022-11-20T06:11:20;3.50;;;1.77;;
32788;SDS011;19141;48.980;8.410;2022-11-20T06:13:45;4.72;;;1.90;;
32788;SDS011;19141;48.980;8.410;2022-11-20T06:16:12;3.05;;;1.65;;
32788;SDS011;19141;48.980;8.410;2022-11-20T06:18:39;2.40;;;1.48;;
32788;SDS011;19141;48.980;8.410;2022-11-20T06:21:08;2.45;;;1.67;;
32788;SDS011;19141;48.980;8.410;2022-11-20T06:23:37;1.90;;;1.70;;
32788;SDS011;19141;48.980;8.410;2022-11-20T06:26:07;2.53;;;1.75;;
32788;SDS011;19141;48.980;8.410;2022-11-20T06:28:37;1.45;;;1.30;;
32788;SDS011;19141;48.980;8.410;2022-11-20T06:31:03;3.03;;;1.80;;
32788;SDS011;19141;48.980;8.410;2022-11-20T06:33:30;2.25;;;1.80;;
32788;SDS011;19141;48.980;8.410;2022-11-20T06:35:58;2.00;;;1.48;;
32788;SDS011;19141;48.980;8.410;2022-11-20T06:38:25;5.57;;;1.48;;
32788;SDS011;19141;48.980;8.410;2022-11-20T06:40:51;2.08;;;1.50;;
32788;SDS011;19141;48.980;8.410;2022-11-20T06:43:17;1.77;;;1.40;;
32788;SDS011;19141;48.980;8.410;2022-11-20T06:45:42;2.17;;;1.58;;
32788;SDS011;19141;48.980;8.410;2022-11-20T06:48:07;2.55;;;1.73;;
32788;SDS011;19141;48.980;8.410;2022-11-20T06:50:35;1.98;;;1.23;;
32788;SDS011;19141;48.980;8.410;2022-11-20T06:53:01;3.23;;;1.90;;
32788;SDS011;19141;48.980;8.410;2022-11-20T06:55:27;2.05;;;1.45;;
32788;SDS011;19141;48.980;8.410;2022-11-20T06:57:53;2.13;;;1.50;;
32788;SDS011;19141;48.980;8.410;2022-11-20T07:00:18;2.40;;;1.27;;
32788;SDS011;19141;48.980;8.410;2022-11-20T07:02:44;2.55;;;1.60;;
32788;SDS011;19141;48.980;8.410;2022-11-20T07:05:09;2.03;;;1.30;;
32788;SDS011;19141;48.980;8.410;2022-11-20T07:07:34;4.30;;;1.70;;
32788;SDS011;19141;48.980;8.410;2022-11-20T07:10:00;2.25;;;1.60;;
32788;SDS011;19141;48.980;8.410;2022-11-20T07:12:25;2.00;;;1.20;;
32788;SDS011;19141;48.980;8.410;2022-11-20T07:14:51;1.40;;;1.30;;
32788;SDS011;19141;48.980;8.410;2022-11-20T07:17:16;1.60;;;1.27;;
32788;SDS011;19141;48.980;8.410;2022-11-20T07:19:41;3.42;;;1.70;;
32788;SDS011;19141;48.980;8.410;2022-11-20T07:22:08;3.65;;;1.92;;
32788;SDS011;19141;48.980;8.410;2022-11-20T07:24:33;3.65;;;1.70;;
32788;SDS011;19141;48.980;8.410;2022-11-20T07:26:59;2.20;;;1.60;;
32788;SDS011;19141;48.980;8.410;2022-11-20T07:29:25;3.20;;;1.80;;
32788;SDS011;19141;48.980;8.410;2022-11-20T07:31:50;3.35;;;1.67;;
32788;SDS011;19141;48.980;8.410;2022-11-20T07:34:16;2.53;;;1.27;;
32788;SDS011;19141;48.980;8.410;2022-11-20T07:36:41;3.45;;;1.73;;
32788;SDS011;19141;48.980;8.410;2022-11-20T07:39:06;2.42;;;1.52;;
32788;SDS011;19141;48.980;8.410;2022-11-20T07:41:32;2.63;;;1.75;;
32788;SDS011;19141;48.980;8.410;2022-11-20T07:43:57;2.75;;;1.85;;
32788;SDS011;19141;48.980;8.410;2022-11-20T07:46:23;2.28;;;1.50;;
32788;SDS011;19141;48.980;8.410;2022-11-20T07:48:48;2.47;;;1.80;;
32788;SDS011;19141;48.980;8.410;2022-11-20T07:51:14;2.05;;;1.70;;
32788;SDS011;19141;48.980;8.410;2022-11-20T07:53:39;4.25;;;1.63;;
32788;SDS011;19141;48.980;8.410;2022-11-20T07:56:05;1.38;;;1.17;;
32788;SDS011;19141;48.980;8.410;2022-11-20T07:58:30;2.10;;;1.42;;
32788;SDS011;19141;48.980;8.410;2022-11-20T08:00:58;2.33;;;1.55;;
32788;SDS011;19141;48.980;8.410;2022-11-20T08:03:28;1.38;;;1.15;;
32788;SDS011;19141;48.980;8.410;2022-11-20T08:05:53;3.05;;;2.13;;
32788;SDS011;19141;48.980;8.410;2022-11-20T08:08:19;3.13;;;2.03;;
32788;SDS011;19141;48.980;8.410;2022-11-20T08:10:45;3.00;;;1.58;;
32788;SDS011;19141;48.980;8.410;2022-11-20T08:13:10;3.33;;;1.85;;
32788;SDS011;19141;48.980;8.410;2022-11-20T08:15:54;1.77;;;1.50;;
32788;SDS011;19141;48.980;8.410;2022-11-20T08:18:20;1.65;;;1.52;;
32788;SDS011;19141;48.980;8.410;2022-11-20T08:20:45;2.13;;;1.60;;
32788;SDS011;19141;48.980;8.410;2022-11-20T08:23:10;2.80;;;1.55;;
32788;SDS011;19141;48.980;8.410;2022-11-20T08:25:36;4.07;;;1.38;;
32788;SDS011;19141;48.980;8.410;2022-11-20T08:28:04;2.45;;;1.50;;
32788;SDS011;19141;48.980;8.410;2022-11-20T08:30:31;2.08;;;1.63;;
32788;SDS011;19141;48.980;8.410;2022-11-20T08:33:01;2.00;;;1.55;;
32788;SDS011;19141;48.980;8.410;2022-11-20T08:35:36;3.33;;;1.98;;
32788;SDS011;19141;48.980;8.410;2022-11-20T08:38:03;2.17;;;1.57;;
32788;SDS011;19141;48.980;8.410;2022-11-20T08:40:31;3.35;;;2.05;;
32788;SDS011;19141;48.980;8.410;2022-11-20T08:42:57;2.45;;;1.45;;
32788;SDS011;19141;48.980;8.410;2022-11-20T08:45:22;2.60;;;1.48;;
32788;SDS011;19141;48.980;8.410;2022-11-20T08:47:48;4.63;;;2.15;;
32788;SDS011;19141;48.980;8.410;2022-11-20T08:50:14;3.50;;;2.00;;
32788;SDS011;19141;48.980;8.410;2022-11-20T08:52:40;3.42;;;1.80;;
32788;SDS011;19141;48.980;8.410;2022-11-20T08:55:06;1.50;;;1.40;;
32788;SDS011;19141;48.980;8.410;2022-11-20T08:57:33;4.05;;;2.30;;
32788;SDS011;19141;48.980;8.410;2022-11-20T08:59:59;1.88;;;1.30;;
32788;SDS011;19141;48.980;8.410;2022-11-20T09:02:24;2.80;;;1.52;;
32788;SDS011;19141;48.980;8.410;2022-11-20T09:04:50;3.72;;;1.75;;
32788;SDS011;19141;48.980;8.410;2022-11-20T09:07:16;3.00;;;1.85;;
32788;SDS011;19141;48.980;8.410;2022-11-20T09:09:41;3.60;;;1.70;;
32788;SDS011;19141;48.980;8.410;2022-11-20T09:12:07;1.70;;;1.40;;
32788;SDS011;19141;48.980;8.410;2022-11-20T09:14:32;3.22;;;1.70;;
32788;SDS011;19141;48.980;8.410;2022-11-20T09:16:58;2.33;;;1.33;;
32788;SDS011;19141;48.980;8.410;2022-11-20T09:19:24;2.50;;;1.83;;
32788;SDS011;19141;48.980;8.410;2022-11-20T09:21:49;3.03;;;1.88;;
32788;SDS011;19141;48.980;8.410;2022-11-20T09:24:15;2.58;;;1.60;;
32788;SDS011;19141;48.980;8.410;2022-11-20T09:26:41;2.38;;;1.60;;
32788;SDS011;19141;48.980;8.410;2022-11-20T09:29:06;2.63;;;1.58;;
32788;SDS011;19141;48.980;8.410;2022-11-20T09:31:32;2.75;;;1.45;;
32788;SDS011;19141;48.980;8.410;2022-11-20T09:33:57;1.73;;;1.35;;
32788;SDS011;19141;48.980;8.410;2022-11-20T09:36:23;3.17;;;1.90;;
32788;SDS011;19141;48.980;8.410;2022-11-20T09:38:48;3.47;;;1.80;;
32788;SDS011;19141;48.980;8.410;2022-11-20T09:47:14;4.13;;;1.58;;
32788;SDS011;19141;48.980;8.410;2022-11-20T09:50:06;2.60;;;1.42;;
32788;SDS011;19141;48.980;8.410;2022-11-20T09:52:54;6.80;;;1.92;;
32788;SDS011;19141;48.980;8.410;2022-11-20T09:55:23;2.00;;;1.67;;
32788;SDS011;19141;48.980;8.410;2022-11-20T09:57:50;3.35;;;1.50;;
32788;SDS011;19141;48.980;8.410;2022-11-20T10:00:17;2.42;;;1.73;;
32788;SDS011;19141;48.980;8.410;2022-11-20T10:03:11;4.03;;;1.67;;
32788;SDS011;19141;48.980;8.410;2022-11-20T10:05:50;3.00;;;1.80;;
32788;SDS011;19141;48.980;8.410;2022-11-20T10:08:28;2.22;;;1.58;;
32788;SDS011;19141;48.980;8.410;2022-11-20T10:10:58;2.78;;;1.88;;
32788;SDS011;19141;48.980;8.410;2022-11-20T10:13:40;3.65;;;2.25;;
32788;SDS011;19141;48.980;8.410;2022-11-20T10:19:27;1.63;;;1.27;;
32788;SDS011;19141;48.980;8.410;2022-11-20T10:24:56;4.40;;;2.03;;
32788;SDS011;19141;48.980;8.410;2022-11-20T10:30:16;3.42;;;1.52;;
32788;SDS011;19141;48.980;8.410;2022-11-20T10:32:52;3.85;;;2.00;;
32788;SDS011;19141;48.980;8.410;2022-11-20T10:35:27;5.35;;;1.95;;
32788;SDS011;19141;48.980;8.410;2022-11-20T10:38:00;2.83;;;1.90;;
32788;SDS011;19141;48.980;8.410;2022-11-20T10:42:59;3.33;;;1.88;;
32788;SDS011;19141;48.980;8.410;2022-11-20T10:45:33;4.28;;;2.10;;
32788;SDS011;19141;48.980;8.410;2022-11-20T10:51:05;3.92;;;1.85;;
32788;SDS011;19141;48.980;8.410;2022-11-20T10:56:38;3.10;;;1.92;;
32788;SDS011;19141;48.980;8.410;2022-11-20T10:59:28;6.15;;;1.77;;
32788;SDS011;19141;48.980;8.410;2022-11-20T11:02:16;2.67;;;1.80;;
32788;SDS011;19141;48.980;8.410;2022-11-20T11:04:48;2.17;;;1.60;;
32788;SDS011;19141;48.980;8.410;2022-11-20T11:07:22;2.05;;;1.52;;
32788;SDS011;19141;48.980;8.410;2022-11-20T11:09:52;2.30;;;1.67;;
32788;SDS011;19141;48.980;8.410;2022-11-20T11:12:20;2.20;;;1.73;;
32788;SDS011;19141;48.980;8.410;2022-11-20T11:14:50;3.03;;;1.98;;
32788;SDS011;19141;48.980;8.410;2022-11-20T11:17:24;2.90;;;1.40;;
32788;SDS011;19141;48.980;8.410;2022-11-20T11:22:33;5.75;;;2.13;;
32788;SDS011;19141;48.980;8.410;2022-11-20T11:25:00;3.00;;;1.98;;
32788;SDS011;19141;48.980;8.410;2022-11-20T11:27:26;3.55;;;1.50;;
32788;SDS011;19141;48.980;8.410;2022-11-20T11:30:01;2.33;;;1.50;;
32788;SDS011;19141;48.980;8.410;2022-11-20T11:32:38;2.17;;;1.52;;
32788;SDS011;19141;48.980;8.410;2022-11-20T11:35:20;3.28;;;1.63;;
32788;SDS011;19141;48.980;8.410;2022-11-20T11:37:48;1.85;;;1.52;;
32788;SDS011;19141;48.980;8.410;2022-11-20T11:40:14;3.85;;;1.70;;
32788;SDS011;19141;48.980;8.410;2022-11-20T11:42:42;1.90;;;1.23;;
32788;SDS011;19141;48.980;8.410;2022-11-20T11:45:14;1.93;;;1.40;;
32788;SDS011;19141;48.980;8.410;2022-11-20T11:52:45;1.88;;;1.25;;
32788;SDS011;19141;48.980;8.410;2022-11-20T12:00:34;1.92;;;1.08;;
32788;SDS011;19141;48.980;8.410;2022-11-20T12:03:09;1.92;;;1.40;;
32788;SDS011;19141;48.980;8.410;2022-11-20T12:05:42;4.45;;;1.20;;
32788;SDS011;19141;48.980;8.410;2022-11-20T12:10:50;2.67;;;1.02;;
32788;SDS011;19141;48.980;8.410;2022-11-20T12:15:58;2.13;;;1.13;;
32788;SDS011;19141;48.980;8.410;2022-11-20T12:18:24;1.63;;;1.17;;
32788;SDS011;19141;48.980;8.410;2022-11-20T12:23:30;1.52;;;1.30;;
32788;SDS011;19141;48.980;8.410;2022-11-20T12:26:10;2.45;;;1.25;;
32788;SDS011;19141;48.980;8.410;2022-11-20T12:28:48;1.10;;;1.00;;
32788;SDS011;19141;48.980;8.410;2022-11-20T12:39:33;1.67;;;1.00;;
32788;SDS011;19141;48.980;8.410;2022-11-20T13:04:12;1.98;;;1.00;;
32788;SDS011;19141;48.980;8.410;2022-11-20T13:06:52;0.57;;;0.57;;
32788;SDS011;19141;48.980;8.410;2022-11-20T13:09:19;2.65;;;0.90;;
32788;SDS011;19141;48.980;8.410;2022-11-20T13:15:03;1.85;;;0.85;;
32788;SDS011;19141;48.980;8.410;2022-11-20T13:17:46;0.47;;;0.38;;
32788;SDS011;19141;48.980;8.410;2022-11-20T13:20:13;1.80;;;1.02;;
32788;SDS011;19141;48.980;8.410;2022-11-20T13:22:45;0.95;;;0.50;;
32788;SDS011;19141;48.980;8.410;2022-11-20T13:25:30;1.90;;;0.90;;
32788;SDS011;19141;48.980;8.410;2022-11-20T13:27:58;1.35;;;0.85;;
32788;SDS011;19141;48.980;8.410;2022-11-20T13:30:29;1.05;;;0.80;;
32788;SDS011;19141;48.980;8.410;2022-11-20T13:35:33;1.17;;;0.88;;
32788;SDS011;19141;48.980;8.410;2022-11-20T13:38:07;0.85;;;0.80;;
32788;SDS011;19141;48.980;8.410;2022-11-20T13:40:38;1.80;;;1.10;;
32788;SDS011;19141;48.980;8.410;2022-11-20T13:46:05;1.35;;;1.10;;
32788;SDS011;19141;48.980;8.410;2022-11-20T13:48:33;1.90;;;1.02;;
32788;SDS011;19141;48.980;8.410;2022-11-20T13:53:54;1.92;;;1.30;;
32788;SDS011;19141;48.980;8.410;2022-11-20T14:02:13;1.48;;;0.90;;
32788;SDS011;19141;48.980;8.410;2022-11-20T14:04:42;1.10;;;0.80;;
32788;SDS011;19141;48.980;8.410;2022-11-20T14:07:10;1.00;;;0.80;;
32788;SDS011;19141;48.980;8.410;2022-11-20T14:09:36;1.38;;;0.60;;
32788;SDS011;19141;48.980;8.410;2022-11-20T14:12:02;0.95;;;0.75;;
32788;SDS011;19141;48.980;8.410;2022-11-20T14:14:29;0.95;;;0.88;;
32788;SDS011;19141;48.980;8.410;2022-11-20T14:17:08;1.85;;;0.85;;
32788;SDS011;19141;48.980;8.410;2022-11-20T14:19:42;3.22;;;1.08;;
32788;SDS011;19141;48.980;8.410;2022-11-20T14:24:38;3.25;;;0.80;;
32788;SDS011;19141;48.980;8.410;2022-11-20T14:27:04;2.60;;;0.93;;
32788;SDS011;19141;48.980;8.410;2022-11-20T14:29:33;0.57;;;0.57;;
32788;SDS011;19141;48.980;8.410;2022-11-20T14:32:01;1.30;;;0.82;;
32788;SDS011;19141;48.980;8.410;2022-11-20T14:34:29;6.22;;;1.10;;
32788;SDS011;19141;48.980;8.410;2022-11-20T14:37:01;1.83;;;0.90;;
32788;SDS011;19141;48.980;8.410;2022-11-20T14:39:31;1.42;;;0.80;;
32788;SDS011;19141;48.980;8.410;2022-11-20T14:41:59;1.55;;;1.05;;
32788;SDS011;19141;48.980;8.410;2022-11-20T14:44:30;2.08;;;0.60;;
32788;SDS011;19141;48.980;8.410;2022-11-20T14:46:58;1.70;;;0.60;;
32788;SDS011;19141;48.980;8.410;2022-11-20T14:49:26;3.08;;;0.90;;
32788;SDS011;19141;48.980;8.410;2022-11-20T14:51:59;1.92;;;1.13;;
32788;SDS011;19141;48.980;8.410;2022-11-20T14:54:25;3.67;;;0.90;;
32788;SDS011;19141;48.980;8.410;2022-11-20T14:56:56;2.17;;;1.08;;
32788;SDS011;19141;48.980;8.410;2022-11-20T14:59:31;0.93;;;0.90;;
32788;SDS011;19141;48.980;8.410;2022-11-20T15:02:02;0.52;;;0.52;;
32788;SDS011;19141;48.980;8.410;2022-11-20T15:04:47;0.82;;;0.77;;
32788;SDS011;19141;48.980;8.410;2022-11-20T15:07:25;2.83;;;1.60;;
32788;SDS011;19141;48.980;8.410;2022-11-20T15:10:05;1.33;;;1.00;;
32788;SDS011;19141;48.980;8.410;2022-11-20T15:12:59;1.65;;;1.10;;
32788;SDS011;19141;48.980;8.410;2022-11-20T15:15:32;3.05;;;1.13;;
32788;SDS011;19141;48.980;8.410;2022-11-20T15:17:58;2.60;;;0.82;;
32788;SDS011;19141;48.980;8.410;2022-11-20T15:20:25;2.13;;;1.10;;
32788;SDS011;19141;48.980;8.410;2022-11-20T15:22:54;5.25;;;1.40;;
32788;SDS011;19141;48.980;8.410;2022-11-20T15:25:19;4.00;;;1.30;;
32788;SDS011;19141;48.980;8.410;2022-11-20T15:27:45;3.65;;;0.90;;
32788;SDS011;19141;48.980;8.410;2022-11-20T15:30:15;1.15;;;0.70;;
32788;SDS011;19141;48.980;8.410;2022-11-20T15:32:43;2.47;;;1.23;;
32788;SDS011;19141;48.980;8.410;2022-11-20T15:35:09;2.03;;;1.00;;
32788;SDS011;19141;48.980;8.410;2022-11-20T15:37:36;0.93;;;0.85;;
32788;SDS011;19141;48.980;8.410;2022-11-20T15:40:02;2.65;;;1.17;;
32788;SDS011;19141;48.980;8.410;2022-11-20T15:42:28;3.30;;;1.02;;
32788;SDS011;19141;48.980;8.410;2022-11-20T15:44:53;0.75;;;0.70;;
32788;SDS011;19141;48.980;8.410;2022-11-20T15:47:19;1.48;;;1.00;;
32788;SDS011;19141;48.980;8.410;2022-11-20T15:49:50;2.25;;;1.30;;
32788;SDS011;19141;48.980;8.410;2022-11-20T15:52:15;2.38;;;1.30;;
32788;SDS011;19141;48.980;8.410;2022-11-20T15:54:41;3.38;;;0.85;;
32788;SDS011;19141;48.980;8.410;2022-11-20T15:57:06;6.57;;;0.85;;
32788;SDS011;19141;48.980;8.410;2022-11-20T15:59:32;0.77;;;0.77;;
32788;SDS011;19141;48.980;8.410;2022-11-20T16:01:57;1.17;;;0.90;;
32788;SDS011;19141;48.980;8.410;2022-11-20T16:04:23;4.70;;;0.98;;
32788;SDS011;19141;48.980;8.410;2022-11-20T16:06:48;2.72;;;1.23;;
32788;SDS011;19141;48.980;8.410;2022-11-20T16:09:13;2.53;;;1.10;;
32788;SDS011;19141;48.980;8.410;2022-11-20T16:11:39;2.65;;;0.90;;
32788;SDS011;19141;48.980;8.410;2022-11-20T16:14:04;1.70;;;1.08;;
32788;SDS011;19141;48.980;8.410;2022-11-20T16:16:49;1.35;;;0.95;;
32788;SDS011;19141;48.980;8.410;2022-11-20T16:19:15;1.10;;;0.73;;
32788;SDS011;19141;48.980;8.410;2022-11-20T16:21:41;2.03;;;1.40;;
32788;SDS011;19141;48.980;8.410;2022-11-20T16:24:08;3.08;;;1.33;;
32788;SDS011;19141;48.980;8.410;2022-11-20T16:26:35;1.40;;;1.05;;
32788;SDS011;19141;48.980;8.410;2022-11-20T16:29:02;1.77;;;1.25;;
32788;SDS011;19141;48.980;8.410;2022-11-20T16:31:28;2.38;;;1.20;;
32788;SDS011;19141;48.980;8.410;2022-11-20T16:33:55;1.30;;;0.85;;
32788;SDS011;19141;48.980;8.410;2022-11-20T16:36:22;1.73;;;0.90;;
32788;SDS011;19141;48.980;8.410;2022-11-20T16:38:59;2.38;;;1.20;;
32788;SDS011;19141;48.980;8.410;2022-11-20T16:41:27;1.48;;;1.10;;
32788;SDS011;19141;48.980;8.410;2022-11-20T16:43:55;2.05;;;1.30;;
32788;SDS011;19141;48.980;8.410;2022-11-20T16:46:22;2.10;;;1.13;;
32788;SDS011;19141;48.980;8.410;2022-11-20T16:48:56;3.83;;;1.60;;
32788;SDS011;19141;48.980;8.410;2022-11-20T16:51:26;2.75;;;1.83;;
32788;SDS011;19141;48.980;8.410;2022-11-20T16:53:52;2.47;;;1.37;;
32788;SDS011;19141;48.980;8.410;2022-11-20T16:56:20;2.20;;;1.47;;
32788;SDS011;19141;48.980;8.410;2022-11-20T16:58:50;2.13;;;1.35;;
32788;SDS011;19141;48.980;8.410;2022-11-20T17:01:18;1.90;;;1.42;;
32788;SDS011;19141;48.980;8.410;2022-11-20T17:03:54;1.40;;;1.30;;
32788;SDS011;19141;48.980;8.410;2022-11-20T17:06:27;1.88;;;1.25;;
32788;SDS011;19141;48.980;8.410;2022-11-20T17:08:55;2.65;;;1.23;;
32788;SDS011;19141;48.980;8.410;2022-11-20T17:11:21;2.42;;;0.95;;
32788;SDS011;19141;48.980;8.410;2022-11-20T17:13:47;2.05;;;0.98;;
32788;SDS011;19141;48.980;8.410;2022-11-20T17:16:14;2.70;;;1.48;;
32788;SDS011;19141;48.980;8.410;2022-11-20T17:21:08;3.05;;;1.13;;
32788;SDS011;19141;48.980;8.410;2022-11-20T17:23:34;6.90;;;1.35;;
32788;SDS011;19141;48.980;8.410;2022-11-20T17:26:04;1.30;;;1.13;;
32788;SDS011;19141;48.980;8.410;2022-11-20T17:28:31;2.92;;;1.73;;
32788;SDS011;19141;48.980;8.410;2022-11-20T17:31:00;1.48;;;1.02;;
32788;SDS011;19141;48.980;8.410;2022-11-20T17:33:37;2.63;;;1.42;;
32788;SDS011;19141;48.980;8.410;2022-11-20T17:36:04;5.82;;;1.52;;
32788;SDS011;19141;48.980;8.410;2022-11-20T17:38:30;4.03;;;2.22;;
32788;SDS011;19141;48.980;8.410;2022-11-20T17:41:03;2.67;;;1.10;;
32788;SDS011;19141;48.980;8.410;2022-11-20T17:43:33;2.28;;;1.50;;
32788;SDS011;19141;48.980;8.410;2022-11-20T17:46:03;2.80;;;1.70;;
32788;SDS011;19141;48.980;8.410;2022-11-20T17:48:34;3.83;;;1.80;;
32788;SDS011;19141;48.980;8.410;2022-11-20T17:51:00;2.88;;;1.30;;
32788;SDS011;19141;48.980;8.410;2022-11-20T17:53:27;3.33;;;1.67;;
32788;SDS011;19141;48.980;8.410;2022-11-20T17:55:56;3.03;;;1.92;;
32788;SDS011;19141;48.980;8.410;2022-11-20T17:58:40;5.78;;;1.70;;
32788;SDS011;19141;48.980;8.410;2022-11-20T18:01:06;2.65;;;1.58;;
32788;SDS011;19141;48.980;8.410;2022-11-20T18:03:32;2.58;;;1.40;;
32788;SDS011;19141;48.980;8.410;2022-11-20T18:05:58;5.93;;;1.85;;
32788;SDS011;19141;48.980;8.410;2022-11-20T18:08:23;2.13;;;1.25;;
32788;SDS011;19141;48.980;8.410;2022-11-20T18:13:16;4.50;;;1.23;;
32788;SDS011;19141;48.980;8.410;2022-11-20T18:15:42;1.25;;;1.15;;
32788;SDS011;19141;48.980;8.410;2022-11-20T18:18:07;3.13;;;1.35;;
32788;SDS011;19141;48.980;8.410;2022-11-20T18:20:32;2.67;;;1.30;;
32788;SDS011;19141;48.980;8.410;2022-11-20T18:22:58;2.78;;;1.08;;
32788;SDS011;19141;48.980;8.410;2022-11-20T18:25:24;2.40;;;1.20;;
32788;SDS011;19141;48.980;8.410;2022-11-20T18:27:49;2.65;;;1.00;;
32788;SDS011;19141;48.980;8.410;2022-11-20T18:30:17;3.42;;;0.98;;
32788;SDS011;19141;48.980;8.410;2022-11-20T18:32:42;1.75;;;1.27;;
32788;SDS011;19141;48.980;8.410;2022-11-20T18:35:08;1.65;;;1.02;;
32788;SDS011;19141;48.980;8.410;2022-11-20T18:37:33;1.55;;;1.02;;
32788;SDS011;19141;48.980;8.410;2022-11-20T18:39:59;2.45;;;1.35;;
32788;SDS011;19141;48.980;8.410;2022-11-20T18:42:24;4.00;;;1.10;;
32788;SDS011;19141;48.980;8.410;2022-11-20T18:45:08;1.20;;;1.00;;
32788;SDS011;19141;48.980;8.410;2022-11-20T18:47:34;3.42;;;1.40;;
32788;SDS011;19141;48.980;8.410;2022-11-20T18:50:02;3.45;;;1.33;;
32788;SDS011;19141;48.980;8.410;2022-11-20T18:52:30;2.72;;;1.35;;
32788;SDS011;19141;48.980;8.410;2022-11-20T18:55:03;1.85;;;1.17;;
32788;SDS011;19141;48.980;8.410;2022-11-20T18:57:30;1.95;;;1.17;;
32788;SDS011;19141;48.980;8.410;2022-11-20T18:59:56;2.40;;;1.50;;
32788;SDS011;19141;48.980;8.410;2022-11-20T19:02:25;2.95;;;1.27;;
32788;SDS011;19141;48.980;8.410;2022-11-20T19:04:52;1.05;;;0.85;;
32788;SDS011;19141;48.980;8.410;2022-11-20T19:07:18;3.97;;;1.58;;
32788;SDS011;19141;48.980;8.410;2022-11-20T19:09:47;1.30;;;1.20;;
32788;SDS011;19141;48.980;8.410;2022-11-20T19:12:13;1.40;;;1.20;;
32788;SDS011;19141;48.980;8.410;2022-11-20T19:14:39;1.42;;;1.20;;
32788;SDS011;19141;48.980;8.410;2022-11-20T19:17:05;1.13;;;0.95;;
32788;SDS011;19141;48.980;8.410;2022-11-20T19:19:32;2.05;;;1.08;;
32788;SDS011;19141;48.980;8.410;2022-11-20T19:21:58;4.63;;;1.70;;
32788;SDS011;19141;48.980;8.410;2022-11-20T19:24:23;2.15;;;1.67;;
32788;SDS011;19141;48.980;8.410;2022-11-20T19:26:49;2.75;;;1.23;;
32788;SDS011;19141;48.980;8.410;2022-11-20T19:29:14;3.58;;;1.63;;
32788;SDS011;19141;48.980;8.410;2022-11-20T19:31:41;3.00;;;1.48;;
32788;SDS011;19141;48.980;8.410;2022-11-20T19:34:08;1.67;;;1.30;;
32788;SDS011;19141;48.980;8.410;2022-11-20T19:36:35;2.80;;;1.50;;
32788;SDS011;19141;48.980;8.410;2022-11-20T19:39:02;2.78;;;1.85;;
32788;SDS011;19141;48.980;8.410;2022-11-20T19:41:30;2.65;;;1.55;;
32788;SDS011;19141;48.980;8.410;2022-11-20T19:43:57;3.88;;;1.85;;
32788;SDS011;19141;48.980;8.410;2022-11-20T19:46:23;1.98;;;1.77;;
32788;SDS011;19141;48.980;8.410;2022-11-20T19:48:50;6.25;;;2.47;;
32788;SDS011;19141;48.980;8.410;2022-11-20T19:51:17;3.42;;;1.70;;
32788;SDS011;19141;48.980;8.410;2022-11-20T19:53:44;4.10;;;1.90;;
32788;SDS011;19141;48.980;8.410;2022-11-20T19:56:10;5.75;;;1.30;;
32788;SDS011;19141;48.980;8.410;2022-11-20T19:58:35;5.70;;;1.33;;
32788;SDS011;19141;48.980;8.410;2022-11-20T20:01:08;2.95;;;1.95;;
32788;SDS011;19141;48.980;8.410;2022-11-20T20:03:35;3.33;;;1.60;;
32788;SDS011;19141;48.980;8.410;2022-11-20T20:06:04;2.03;;;1.48;;
32788;SDS011;19141;48.980;8.410;2022-11-20T20:08:32;3.90;;;1.58;;
32788;SDS011;19141;48.980;8.410;2022-11-20T20:10:58;3.33;;;2.25;;
32788;SDS011;19141;48.980;8.410;2022-11-20T20:13:23;2.80;;;1.67;;
32788;SDS011;19141;48.980;8.410;2022-11-20T20:15:50;3.33;;;1.63;;
32788;SDS011;19141;48.980;8.410;2022-11-20T20:18:16;2.08;;;1.35;;
32788;SDS011;19141;48.980;8.410;2022-11-20T20:20:41;3.05;;;1.48;;
32788;SDS011;19141;48.980;8.410;2022-11-20T20:23:07;1.42;;;1.17;;
32788;SDS011;19141;48.980;8.410;2022-11-20T20:25:33;3.03;;;1.33;;
32788;SDS011;19141;48.980;8.410;2022-11-20T20:28:01;2.90;;;1.17;;
32788;SDS011;19141;48.980;8.410;2022-11-20T20:30:26;3.05;;;1.63;;
32788;SDS011;19141;48.980;8.410;2022-11-20T20:32:51;1.92;;;1.17;;
32788;SDS011;19141;48.980;8.410;2022-11-20T20:35:17;1.95;;;1.15;;
32788;SDS011;19141;48.980;8.410;2022-11-20T20:37:45;3.50;;;1.60;;
32788;SDS011;19141;48.980;8.410;2022-11-20T20:40:11;3.25;;;1.52;;
32788;SDS011;19141;48.980;8.410;2022-11-20T20:42:36;4.15;;;1.40;;
32788;SDS011;19141;48.980;8.410;2022-11-20T20:45:02;2.28;;;1.40;;
32788;SDS011;19141;48.980;8.410;2022-11-20T20:47:34;2.72;;;1.73;;
32788;SDS011;19141;48.980;8.410;2022-11-20T20:50:04;2.00;;;1.50;;
32788;SDS011;19141;48.980;8.410;2022-11-20T20:52:32;3.55;;;1.60;;
32788;SDS011;19141;48.980;8.410;2022-11-20T20:54:58;1.52;;;1.20;;
32788;SDS011;19141;48.980;8.410;2022-11-20T20:57:23;2.53;;;1.20;;
32788;SDS011;19141;48.980;8.410;2022-11-20T20:59:49;1.60;;;1.10;;
32788;SDS011;19141;48.980;8.410;2022-11-20T21:02:19;1.95;;;1.40;;
32788;SDS011;19141;48.980;8.410;2022-11-20T21:04:46;1.60;;;1.05;;
32788;SDS011;19141;48.980;8.410;2022-11-20T21:07:11;2.95;;;1.15;;
32788;SDS011;19141;48.980;8.410;2022-11-20T21:09:37;1.40;;;1.17;;
32788;SDS011;19141;48.980;8.410;2022-11-20T21:12:02;2.25;;;1.35;;
32788;SDS011;19141;48.980;8.410;2022-11-20T21:14:28;1.92;;;1.38;;
32788;SDS011;19141;48.980;8.410;2022-11-20T21:16:54;4.40;;;1.60;;
32788;SDS011;19141;48.980;8.410;2022-11-20T21:19:19;2.45;;;1.52;;
32788;SDS011;19141;48.980;8.410;2022-11-20T21:21:45;2.70;;;1.75;;
32788;SDS011;19141;48.980;8.410;2022-11-20T21:24:32;1.77;;;1.08;;
32788;SDS011;19141;48.980;8.410;2022-11-20T21:26:59;5.90;;;1.27;;
32788;SDS011;19141;48.980;8.410;2022-11-20T21:29:26;1.10;;;1.00;;
32788;SDS011;19141;48.980;8.410;2022-11-20T21:31:53;1.45;;;1.08;;
32788;SDS011;19141;48.980;8.410;2022-11-20T21:34:19;1.90;;;1.05;;
32788;SDS011;19141;48.980;8.410;2022-11-20T21:36:45;1.75;;;1.17;;
32788;SDS011;19141;48.980;8.410;2022-11-20T21:39:11;1.02;;;0.98;;
32788;SDS011;19141;48.980;8.410;2022-11-20T21:41:38;1.65;;;0.95;;
32788;SDS011;19141;48.980;8.410;2022-11-20T21:44:04;3.00;;;1.10;;
32788;SDS011;19141;48.980;8.410;2022-11-20T21:46:31;1.17;;;1.08;;
32788;SDS011;19141;48.980;8.410;2022-11-20T21:48:58;2.47;;;1.17;;
32788;SDS011;19141;48.980;8.410;2022-11-20T21:51:24;3.53;;;1.30;;
32788;SDS011;19141;48.980;8.410;2022-11-20T21:53:51;1.97;;;1.40;;
32788;SDS011;19141;48.980;8.410;2022-11-20T21:56:18;4.60;;;1.17;;